Maggie Valley, NC

9:36 AM EST on February 11, 2016 (GMT -0500)
Laurel Ridge | | Change Station
CLOSE
Current Station
Personal Weather Station
Location: Maggie Valley, NC
Elevation: 3894 ft
Nearby Weather Stations
Active Advisory: Wind Chill Advisory

Elev 3894 ft 35.53 °N, 83.06 °W | Updated 12 minutes ago

Overcast
Overcast
25.0 °F
Feels Like 25 °F
N
0.0
Wind Variable Wind from NE

Today
High -- | Low -- °F
--% Chance of Precip.
Yesterday
High -- | Low -- °F
Precip. -- in
Pressure 30.12 in
Visibility 10.0 miles
Clouds Overcast 3800 ft
Windchill 25 °F
Dew Point 16 °F
Humidity 68%
Rainfall 0.00 in
Snow Depth Not available.
7:23 AM 6:09 PM
Waxing Crescent, 12% visible
METAR K1A5 111415Z AUTO 07003KT 10SM OVC038 00/M09 A3012 RMK AO2 T10041091
Pressure 30.12 in
Visibility 10.0 miles
Clouds Overcast 3800 ft
Windchill 25 °F
Dew Point 16 °F
Humidity 68%
Rainfall 0.00 in
Snow Depth Not available.
7:23 AM 6:09 PM
Waxing Crescent, 12% visible
METAR K1A5 111415Z AUTO 07003KT 10SM OVC038 00/M09 A3012 RMK AO2 T10041091

10-Day Weather Forecast

Almanac

Astronomy

Feb. 11, 2016 Rise Set
Actual Time
Civil Twilight
Nautical Twilight
Astronomical Twilight
Moon
Length of Visible Light
Length of Day
Tomorrow will be .
, % of the Moon is Illuminated

Today's Extremes

State Highs State Lows

Community

WunderPhotos

Upload Photos

1,892,054 photos uploaded!

WunderBlog® & News

Nearby

Air Quality

  Air Quality AQ Index Pollutant
Not available.

Snow Depth

Station Depth Elevation

Earthquake Activity

City Distance Mag. Time & Date
Minimum magnitude displayed is 2.5.

Coastal Water Temperatures

Place Temperature

Stations

Nearby Weather Stations

Station Location Temp. Windchill Dew Point Humidity Wind Precip. Elev Updated Type
                   

Watches & Warnings

Wind Chill Advisory
Issued: 4:02 AM EST Feb. 11, 2016 – National Weather Service

... Wind Chill Advisory remains in effect until 10 am EST this
morning above 3500 feet...

* locations... high elevations of the central and southern North
Carolina mountains.

* Impacts... wind chill values colder than 5 degrees below zero
will make it dangerous to be outside across the high elevations this
morning.

* Winds... northwest 5 to 15 mph with gusts up to 30 mph on
ridgetops.

* Wind chill values... as low as 5 below.

Precautionary/preparedness actions...

A Wind Chill Advisory means that very cold air and strong winds
will combine to generate low wind chills. This will result in
frost bite and lead to hypothermia if precautions are not taken.
If you must venture outdoors... make sure you wear a hat and
gloves.

Stay tuned to NOAA Weather Radio or your favorite source of
weather information for the latest updates. Additional details
can be found at www.Weather.Gov/gsp.


Wimberley